Time;durP1;ratioP1;P1;durP2;ratioP2;P2;SDS_P1;SDS_P2;PMS_P1;PMS_P2;Temp;Humidity;BMP_temperature;BMP_pressure;BME280_temperature;BME280_humidity;BME280_pressure;Samples;Min_cycle;Max_cycle;Signal;HPM_P1;HPM_P2
2022/05/21 00:00:42;;;;;;;10.20;5.90;;;11.90;99.90;;;;;;5014902;28;20034;-56
2022/05/21 00:03:11;;;;;;;11.52;6.43;;;11.90;99.90;;;;;;5027356;28;20037;-58
2022/05/21 00:05:39;;;;;;;9.70;5.90;;;11.90;99.90;;;;;;5023132;28;20037;-59
2022/05/21 00:08:08;;;;;;;14.25;5.25;;;11.80;99.90;;;;;;5013939;28;20029;-59
2022/05/21 00:10:34;;;;;;;10.65;6.25;;;11.80;99.90;;;;;;5012235;28;20029;-58
2022/05/21 00:13:01;;;;;;;9.93;5.93;;;11.80;99.90;;;;;;5023906;28;20207;-59
2022/05/21 00:15:30;;;;;;;13.98;5.97;;;11.70;99.90;;;;;;5023723;28;20057;-60
2022/05/21 00:17:56;;;;;;;13.85;6.32;;;11.70;99.90;;;;;;5028842;28;20175;-59
2022/05/21 00:23:13;;;;;;;16.45;7.25;;;11.60;99.90;;;;;;5028529;28;20040;-58
2022/05/21 00:25:40;;;;;;;17.02;8.27;;;11.60;99.90;;;;;;5016456;28;20026;-58
2022/05/21 00:28:05;;;;;;;19.20;10.48;;;11.60;99.90;;;;;;5023235;28;20025;-58
2022/05/21 00:30:32;;;;;;;12.85;8.80;;;11.60;99.90;;;;;;5019741;28;20021;-59
2022/05/21 00:32:58;;;;;;;19.63;10.20;;;11.60;99.90;;;;;;5026470;28;20033;-57
2022/05/21 00:35:23;;;;;;;18.65;9.50;;;11.50;99.90;;;;;;5025733;28;20032;-58
2022/05/21 00:37:49;;;;;;;21.40;9.98;;;11.50;99.90;;;;;;5010639;28;20116;-59
2022/05/21 00:40:14;;;;;;;16.77;10.18;;;11.50;99.90;;;;;;5018287;28;20049;-57
2022/05/21 00:42:44;;;;;;;18.00;10.13;;;11.50;99.90;;;;;;5020151;28;20025;-59
2022/05/21 00:45:10;;;;;;;17.35;9.13;;;11.40;99.90;;;;;;5020872;28;20037;-58
2022/05/21 00:47:36;;;;;;;17.52;10.00;;;11.40;99.90;;;;;;5014418;28;20033;-57
2022/05/21 00:50:03;;;;;;;13.82;9.52;;;11.40;99.90;;;;;;5022712;28;20030;-59
2022/05/21 00:52:29;;;;;;;18.05;10.85;;;11.40;99.90;;;;;;5027699;28;20040;-59
2022/05/21 00:54:59;;;;;;;18.02;10.52;;;11.30;99.90;;;;;;5028641;28;20458;-59
2022/05/21 00:57:30;;;;;;;17.25;10.00;;;11.30;99.90;;;;;;5021986;28;20048;-57
2022/05/21 01:00:13;;;;;;;14.52;10.05;;;11.20;99.90;;;;;;5025923;28;20080;-59
2022/05/21 01:02:47;;;;;;;16.77;10.80;;;11.20;99.90;;;;;;5022152;28;20034;-59
2022/05/21 01:05:14;;;;;;;15.48;11.75;;;11.20;99.90;;;;;;5023285;28;20108;-59
2022/05/21 01:07:43;;;;;;;19.35;12.30;;;11.20;99.90;;;;;;5032210;28;20040;-58
2022/05/21 01:10:10;;;;;;;19.23;11.73;;;11.20;99.90;;;;;;5030648;28;20021;-59
2022/05/21 01:12:43;;;;;;;25.60;13.05;;;11.10;99.90;;;;;;5027302;28;20430;-57
2022/05/21 01:15:15;;;;;;;24.48;12.73;;;11.10;99.90;;;;;;5024602;28;20516;-59
2022/05/21 01:17:41;;;;;;;18.27;12.13;;;11.10;99.90;;;;;;5022978;28;20445;-58
2022/05/21 01:20:13;;;;;;;25.05;13.25;;;11.10;99.90;;;;;;5010307;28;20045;-58
2022/05/21 01:22:45;;;;;;;21.48;13.30;;;11.00;99.90;;;;;;5031958;28;20025;-59
2022/05/21 01:25:12;;;;;;;19.80;13.90;;;11.10;99.90;;;;;;5017127;28;20097;-59
2022/05/21 01:27:39;;;;;;;19.20;12.88;;;11.10;99.90;;;;;;5025227;28;20045;-58
2022/05/21 01:30:08;;;;;;;20.63;13.05;;;11.10;99.90;;;;;;5031027;28;20026;-58
2022/05/21 01:32:34;;;;;;;23.23;14.75;;;11.10;99.90;;;;;;5013260;28;20120;-58
2022/05/21 01:35:00;;;;;;;21.83;13.23;;;11.10;99.90;;;;;;5027663;28;20109;-58
2022/05/21 01:37:25;;;;;;;17.45;12.82;;;11.00;99.90;;;;;;5026524;28;20060;-59
2022/05/21 01:39:51;;;;;;;19.90;12.50;;;11.00;99.90;;;;;;5023589;28;20032;-58
2022/05/21 01:42:17;;;;;;;20.48;13.38;;;11.00;99.90;;;;;;5016050;28;20762;-59
2022/05/21 01:44:42;;;;;;;22.42;14.05;;;11.00;99.90;;;;;;5026173;28;20483;-57
2022/05/21 01:47:14;;;;;;;21.60;13.25;;;11.00;99.90;;;;;;5015636;28;20417;-59
2022/05/21 01:49:40;;;;;;;23.42;12.93;;;10.90;99.90;;;;;;5029114;28;20515;-57
2022/05/21 01:52:07;;;;;;;23.10;13.55;;;10.90;99.90;;;;;;5032178;28;20038;-58
2022/05/21 01:54:34;;;;;;;19.90;12.35;;;10.90;99.90;;;;;;5032033;28;20517;-57
2022/05/21 01:57:00;;;;;;;22.30;13.50;;;10.80;99.90;;;;;;5032329;28;20037;-59
2022/05/21 01:59:27;;;;;;;23.80;14.15;;;10.80;99.90;;;;;;5033290;28;20549;-59
2022/05/21 02:01:53;;;;;;;25.25;13.93;;;10.80;99.90;;;;;;5029820;28;20041;-60
2022/05/21 02:04:19;;;;;;;22.77;14.10;;;10.80;99.90;;;;;;5025819;28;20714;-58
2022/05/21 02:06:45;;;;;;;22.63;14.50;;;10.70;99.90;;;;;;5016102;28;20053;-56
2022/05/21 02:09:11;;;;;;;22.73;13.68;;;10.70;99.90;;;;;;5020422;28;20060;-59
2022/05/21 02:11:38;;;;;;;19.33;13.75;;;10.70;99.90;;;;;;5022560;28;20407;-58
2022/05/21 02:14:04;;;;;;;22.85;15.32;;;10.70;99.90;;;;;;5029094;28;20491;-59
2022/05/21 02:16:30;;;;;;;27.80;15.27;;;10.70;99.90;;;;;;5028457;28;20079;-58
2022/05/21 02:18:56;;;;;;;20.95;14.60;;;10.60;99.90;;;;;;5028244;28;20116;-60
2022/05/21 02:21:21;;;;;;;23.08;14.25;;;10.70;99.90;;;;;;5012316;28;20526;-59
2022/05/21 02:23:47;;;;;;;18.55;13.98;;;10.60;99.90;;;;;;5030783;28;20033;-59
2022/05/21 02:26:15;;;;;;;23.77;13.60;;;10.60;99.90;;;;;;5030091;28;20108;-59
2022/05/21 02:28:40;;;;;;;20.63;13.45;;;10.60;99.90;;;;;;5029780;28;20483;-59
2022/05/21 02:31:06;;;;;;;21.33;14.35;;;10.50;99.90;;;;;;5025095;28;20029;-59
2022/05/21 02:33:32;;;;;;;27.75;14.85;;;10.50;99.90;;;;;;5023554;28;20029;-59
2022/05/21 02:35:57;;;;;;;26.58;13.75;;;10.50;99.90;;;;;;5024757;28;20040;-59
2022/05/21 02:41:14;;;;;;;;;;;10.50;99.90;;;;;;5031174;28;20103;-59
2022/05/21 02:43:42;;;;;;;20.50;13.70;;;10.40;99.90;;;;;;5031203;28;19909;-58
2022/05/21 02:46:09;;;;;;;22.02;12.95;;;10.40;99.90;;;;;;5033515;28;20037;-60
2022/05/21 02:48:35;;;;;;;22.75;12.90;;;10.30;99.90;;;;;;5026450;28;20029;-56
2022/05/21 02:51:01;;;;;;;24.05;14.57;;;10.30;99.90;;;;;;5027968;28;20033;-58
2022/05/21 02:53:26;;;;;;;18.40;12.75;;;10.30;99.90;;;;;;5016067;28;20109;-59
2022/05/21 02:55:55;;;;;;;21.27;13.45;;;10.30;99.90;;;;;;5022578;28;20041;-58
2022/05/21 02:58:22;;;;;;;19.50;11.88;;;10.40;99.90;;;;;;5028185;28;20037;-59
2022/05/21 03:00:47;;;;;;;24.00;11.63;;;10.40;99.90;;;;;;5025219;28;20105;-59
2022/05/21 03:03:14;;;;;;;19.75;12.65;;;10.50;99.90;;;;;;5028790;28;20211;-57
2022/05/21 03:05:40;;;;;;;17.00;10.00;;;10.60;99.90;;;;;;5031821;28;20033;-58
2022/05/21 03:10:52;;;;;;;16.65;9.93;;;10.60;99.90;;;;;;5024675;28;20035;-58
2022/05/21 03:13:18;;;;;;;17.02;10.00;;;10.70;99.90;;;;;;5029485;28;20079;-59
2022/05/21 03:15:44;;;;;;;15.73;9.85;;;10.60;99.90;;;;;;5039038;28;20041;-59
2022/05/21 03:18:11;;;;;;;24.00;8.30;;;10.70;99.90;;;;;;5030092;28;20032;-59
2022/05/21 03:20:38;;;;;;;12.70;7.43;;;10.70;99.90;;;;;;5012499;28;20045;-52
2022/05/21 03:23:04;;;;;;;10.65;7.07;;;10.80;99.90;;;;;;5026876;28;20064;-58
2022/05/21 03:25:29;;;;;;;14.07;8.63;;;10.80;99.90;;;;;;5031632;28;20479;-58
2022/05/21 03:27:55;;;;;;;12.00;6.15;;;10.90;99.90;;;;;;5030873;28;20113;-58
2022/05/21 03:30:24;;;;;;;10.50;6.13;;;10.90;99.90;;;;;;5027722;28;20034;-59
2022/05/21 03:32:50;;;;;;;6.95;5.32;;;10.90;99.90;;;;;;5022448;28;20041;-58
2022/05/21 03:35:16;;;;;;;15.00;5.20;;;11.00;99.90;;;;;;5028948;28;20036;-58
2022/05/21 03:37:42;;;;;;;8.98;5.22;;;11.10;99.90;;;;;;5028854;28;20036;-59
2022/05/21 03:40:10;;;;;;;11.57;4.80;;;11.10;99.90;;;;;;5029057;28;20037;-59
2022/05/21 03:42:37;;;;;;;8.55;4.43;;;11.10;99.90;;;;;;5025220;28;20415;-55
2022/05/21 03:45:04;;;;;;;8.68;3.70;;;11.20;99.90;;;;;;5024498;28;20026;-59
2022/05/21 03:47:29;;;;;;;7.28;3.78;;;11.30;99.90;;;;;;5030755;28;20026;-59
2022/05/21 03:49:55;;;;;;;10.75;4.63;;;11.40;99.90;;;;;;5012670;28;20022;-59
2022/05/21 03:52:21;;;;;;;8.23;3.90;;;11.40;99.90;;;;;;5025855;28;20021;-59
2022/05/21 03:54:46;;;;;;;11.02;5.30;;;11.40;99.90;;;;;;5025191;28;20407;-60
2022/05/21 03:57:14;;;;;;;7.97;4.50;;;11.50;99.90;;;;;;5028439;28;20375;-59
2022/05/21 03:59:40;;;;;;;8.38;4.95;;;11.50;99.90;;;;;;5028008;28;20030;-59
2022/05/21 04:02:05;;;;;;;9.35;4.78;;;11.50;99.90;;;;;;5020429;28;20446;-57
2022/05/21 04:04:31;;;;;;;8.95;4.20;;;11.50;99.90;;;;;;5028577;28;20377;-58
2022/05/21 04:06:57;;;;;;;11.27;4.72;;;11.50;99.90;;;;;;5025790;28;20444;-59
2022/05/21 04:09:22;;;;;;;11.38;4.10;;;11.50;99.90;;;;;;5028594;28;20376;-59
2022/05/21 04:11:48;;;;;;;9.85;3.47;;;11.50;99.90;;;;;;5033281;28;20530;-58
2022/05/21 04:14:14;;;;;;;8.57;3.70;;;11.60;99.90;;;;;;5020767;28;20124;-58
2022/05/21 04:16:41;;;;;;;5.35;3.72;;;11.60;99.90;;;;;;5037447;28;20132;-56
2022/05/21 04:19:07;;;;;;;5.85;3.22;;;11.60;99.90;;;;;;5030460;28;20491;-59
2022/05/21 04:21:32;;;;;;;8.43;3.05;;;11.50;99.90;;;;;;5009343;28;20040;-59
2022/05/21 04:23:58;;;;;;;8.05;2.53;;;11.50;99.90;;;;;;5029364;28;20756;-59
2022/05/21 04:26:23;;;;;;;4.53;2.60;;;11.50;99.90;;;;;;5027433;28;20438;-59
2022/05/21 04:28:49;;;;;;;12.65;2.88;;;11.60;99.90;;;;;;5023121;28;20061;-59
2022/05/21 04:31:14;;;;;;;9.07;2.25;;;11.60;99.90;;;;;;5024147;28;20033;-56
2022/05/21 04:33:40;;;;;;;4.07;1.98;;;11.60;99.90;;;;;;5030954;28;20045;-58
2022/05/21 04:36:18;;;;;;;8.35;3.10;;;11.70;99.90;;;;;;5028458;28;20030;-59
2022/05/21 04:38:44;;;;;;;8.15;2.60;;;11.70;99.90;;;;;;5033628;28;20025;-58
2022/05/21 04:41:10;;;;;;;7.65;2.75;;;11.80;99.90;;;;;;5029762;28;20018;-59
2022/05/21 04:43:36;;;;;;;8.65;2.50;;;11.80;99.90;;;;;;5022381;28;20072;-59
2022/05/21 04:46:01;;;;;;;9.13;2.33;;;11.70;99.90;;;;;;5022425;28;20100;-59
2022/05/21 04:48:27;;;;;;;8.38;2.42;;;11.80;99.90;;;;;;5033469;28;20475;-59
2022/05/21 04:50:52;;;;;;;8.35;2.28;;;11.80;99.90;;;;;;5028028;28;20076;-59
2022/05/21 04:53:18;;;;;;;11.05;2.80;;;11.80;99.90;;;;;;5033655;28;20095;-59
2022/05/21 04:55:43;;;;;;;5.82;2.13;;;11.90;99.90;;;;;;5035969;28;20403;-60
2022/05/21 04:58:09;;;;;;;10.98;1.95;;;11.90;99.90;;;;;;5024352;28;20116;-59
2022/05/21 05:00:35;;;;;;;6.63;1.90;;;12.00;99.90;;;;;;5033379;28;20040;-58
2022/05/21 05:03:00;;;;;;;11.02;2.63;;;11.90;99.90;;;;;;5032851;28;20091;-59
2022/05/21 05:05:26;;;;;;;8.13;1.92;;;11.90;99.90;;;;;;5020375;28;20029;-59
2022/05/21 05:07:52;;;;;;;9.30;2.03;;;12.00;99.90;;;;;;5013931;28;20053;-60
2022/05/21 05:10:17;;;;;;;8.88;1.83;;;12.00;99.90;;;;;;5025039;28;20680;-59
2022/05/21 05:12:43;;;;;;;10.73;2.80;;;12.00;99.90;;;;;;5029283;28;20033;-57
2022/05/21 05:15:09;;;;;;;8.13;1.80;;;12.00;99.90;;;;;;5022743;28;20132;-59
2022/05/21 05:17:34;;;;;;;4.22;1.95;;;12.00;99.90;;;;;;5028801;28;20116;-59
2022/05/21 05:20:01;;;;;;;10.70;2.42;;;12.10;99.90;;;;;;5026154;28;20060;-58
2022/05/21 05:22:27;;;;;;;6.50;2.03;;;12.10;99.90;;;;;;5004574;28;20080;-59
2022/05/21 05:24:52;;;;;;;5.65;1.50;;;12.20;99.90;;;;;;5029922;28;20029;-60
2022/05/21 05:27:18;;;;;;;6.00;2.30;;;12.20;99.90;;;;;;5031170;28;20442;-59
2022/05/21 05:29:44;;;;;;;12.23;2.25;;;12.30;99.90;;;;;;5015255;28;20438;-59
2022/05/21 05:32:10;;;;;;;7.13;2.50;;;12.40;99.90;;;;;;5028716;28;20041;-59
2022/05/21 05:34:36;;;;;;;8.57;1.90;;;12.40;99.90;;;;;;5029510;28;20033;-59
2022/05/21 05:37:01;;;;;;;8.30;1.92;;;12.40;99.90;;;;;;5029241;28;20030;-58
2022/05/21 05:39:28;;;;;;;9.05;1.80;;;12.40;99.90;;;;;;5031094;28;20372;-58
2022/05/21 05:41:54;;;;;;;12.00;2.40;;;12.40;99.90;;;;;;5024069;28;20029;-60
2022/05/21 05:44:20;;;;;;;11.82;2.30;;;12.50;99.90;;;;;;5015194;28;20476;-59
2022/05/21 05:46:46;;;;;;;9.65;2.60;;;12.50;99.90;;;;;;5019792;28;20025;-59
2022/05/21 05:49:11;;;;;;;10.70;2.40;;;12.60;99.90;;;;;;5030854;28;20040;-59
2022/05/21 05:51:37;;;;;;;7.82;2.72;;;12.70;99.90;;;;;;5029799;28;20536;-60
2022/05/21 05:54:03;;;;;;;8.35;2.30;;;12.80;99.90;;;;;;5035821;28;20030;-58
2022/05/21 05:56:28;;;;;;;10.20;2.90;;;12.80;99.90;;;;;;5034112;28;20112;-61
2022/05/21 06:01:38;;;;;;;;;;;12.90;99.90;;;;;;5023329;28;20033;-59
2022/05/21 06:04:04;;;;;;;7.25;2.45;;;13.10;99.90;;;;;;5029929;28;19909;-59
2022/05/21 06:06:31;;;;;;;15.77;3.10;;;13.10;99.90;;;;;;5028324;28;20036;-59
2022/05/21 06:08:56;;;;;;;13.48;2.90;;;13.10;99.90;;;;;;5020604;28;20026;-59
2022/05/21 06:11:22;;;;;;;12.27;3.13;;;13.10;99.90;;;;;;5032598;28;20083;-59
2022/05/21 06:13:48;;;;;;;10.52;2.90;;;13.20;99.90;;;;;;5023261;28;20045;-60
2022/05/21 06:16:15;;;;;;;11.25;2.78;;;13.20;99.90;;;;;;5025315;28;20105;-59
2022/05/21 06:18:41;;;;;;;9.82;3.03;;;13.40;99.90;;;;;;5030206;28;20415;-56
2022/05/21 06:21:07;;;;;;;11.35;2.80;;;13.50;99.90;;;;;;5011340;28;20053;-59
2022/05/21 06:23:33;;;;;;;10.52;3.08;;;13.60;99.90;;;;;;5031459;28;20017;-59
2022/05/21 06:26:00;;;;;;;8.77;2.58;;;13.80;99.90;;;;;;5037984;28;20044;-59
2022/05/21 06:28:27;;;;;;;8.63;2.90;;;14.10;99.90;;;;;;5027901;28;20018;-59
2022/05/21 06:30:53;;;;;;;10.43;2.60;;;14.50;99.90;;;;;;5035202;28;20031;-58
2022/05/21 06:33:27;;;;;;;8.50;2.67;;;14.90;99.90;;;;;;5030532;28;20033;-57
2022/05/21 06:36:17;;;;;;;8.75;2.50;;;15.10;99.90;;;;;;5023194;28;20030;-59
2022/05/21 06:38:44;;;;;;;9.32;2.28;;;15.60;99.90;;;;;;5033718;28;20021;-58
2022/05/21 06:41:10;;;;;;;8.45;2.33;;;16.00;99.90;;;;;;5033468;28;20040;-59
2022/05/21 06:43:36;;;;;;;7.60;2.70;;;16.60;99.90;;;;;;5022818;28;20091;-60
2022/05/21 06:46:02;;;;;;;11.57;1.90;;;17.30;99.90;;;;;;5029819;28;20056;-60
2022/05/21 06:48:28;;;;;;;8.82;2.15;;;17.30;99.90;;;;;;5031264;28;20511;-60
2022/05/21 06:50:54;;;;;;;8.90;2.47;;;17.60;99.90;;;;;;5035823;28;20029;-59
2022/05/21 06:53:19;;;;;;;12.70;2.70;;;17.60;99.90;;;;;;5023313;28;20108;-59
2022/05/21 06:55:45;;;;;;;10.40;2.45;;;17.60;99.90;;;;;;5028616;28;20105;-58
2022/05/21 06:58:11;;;;;;;10.38;2.63;;;17.20;99.90;;;;;;5032400;28;20057;-59
2022/05/21 07:00:36;;;;;;;7.90;2.28;;;16.90;99.90;;;;;;5028397;28;20059;-58
2022/05/21 07:03:02;;;;;;;8.75;2.30;;;16.80;99.90;;;;;;5023082;28;20449;-60
2022/05/21 07:08:22;;;;;;;11.15;2.90;;;17.20;99.90;;;;;;5028015;28;20044;-60
2022/05/21 07:10:48;;;;;;;27.67;13.77;;;17.10;99.90;;;;;;5035774;28;20080;-59
2022/05/21 07:13:15;;;;;;;18.52;8.50;;;16.90;99.90;;;;;;5028500;28;20036;-58
2022/05/21 07:15:42;;;;;;;8.63;3.75;;;16.80;99.90;;;;;;5025507;28;20029;-60
2022/05/21 07:18:07;;;;;;;14.18;2.63;;;16.70;99.90;;;;;;5028743;28;20030;-60
2022/05/21 07:20:33;;;;;;;12.35;4.95;;;17.30;99.90;;;;;;5024064;28;20036;-59
2022/05/21 07:23:00;;;;;;;27.45;13.77;;;18.00;98.90;;;;;;5014160;28;20068;-60
2022/05/21 07:25:30;;;;;;;249.10;132.65;;;19.20;95.80;;;;;;5018358;28;20030;-60
2022/05/21 07:27:56;;;;;;;17.48;8.40;;;19.10;95.70;;;;;;5029727;28;20018;-60
2022/05/21 07:30:21;;;;;;;10.43;4.85;;;19.10;95.10;;;;;;5029895;28;20095;-60
2022/05/21 07:32:50;;;;;;;10.07;4.00;;;19.20;94.50;;;;;;5024789;28;20036;-58
2022/05/21 07:35:18;;;;;;;8.65;2.65;;;19.60;94.30;;;;;;5028754;28;20055;-59
2022/05/21 07:37:43;;;;;;;8.88;2.33;;;19.70;93.60;;;;;;5027567;28;20032;-60
2022/05/21 07:40:10;;;;;;;12.90;3.67;;;20.60;93.00;;;;;;5026876;28;20033;-58
2022/05/21 07:42:37;;;;;;;9.32;2.65;;;20.20;92.30;;;;;;5022231;28;20055;-59
2022/05/21 07:45:06;;;;;;;9.65;2.05;;;19.00;93.20;;;;;;5024374;28;20562;-60
2022/05/21 07:47:31;;;;;;;9.98;1.83;;;18.80;94.20;;;;;;5031996;28;20497;-60
2022/05/21 07:49:57;;;;;;;14.27;3.03;;;18.30;94.40;;;;;;5025438;28;20052;-60
2022/05/21 07:52:24;;;;;;;11.65;3.35;;;18.10;96.00;;;;;;5028893;28;20159;-59
2022/05/21 07:54:50;;;;;;;8.80;2.20;;;17.90;96.90;;;;;;5023362;28;20029;-60
2022/05/21 07:57:16;;;;;;;13.10;2.50;;;18.30;97.00;;;;;;5024077;28;20484;-60
2022/05/21 07:59:41;;;;;;;13.15;2.22;;;18.60;96.10;;;;;;5021763;28;20039;-61
2022/05/21 08:02:12;;;;;;;14.00;2.90;;;18.70;94.70;;;;;;5021394;28;20025;-59
2022/05/21 08:04:38;;;;;;;6.95;2.30;;;19.40;94.20;;;;;;5021666;28;20026;-60
2022/05/21 08:07:04;;;;;;;7.15;2.42;;;19.50;93.00;;;;;;5027689;28;20816;-60
2022/05/21 08:09:29;;;;;;;17.58;2.63;;;19.80;93.60;;;;;;5021127;28;20056;-58
2022/05/21 08:11:55;;;;;;;6.90;2.53;;;20.10;92.40;;;;;;5021154;28;20042;-58
2022/05/21 08:14:21;;;;;;;12.93;3.85;;;20.00;92.00;;;;;;5030137;28;20030;-60
2022/05/21 08:16:48;;;;;;;11.02;2.78;;;19.30;92.60;;;;;;5036077;28;20034;-59
2022/05/21 08:19:14;;;;;;;7.35;2.85;;;19.00;93.20;;;;;;5029008;28;20026;-59
2022/05/21 08:21:40;;;;;;;11.52;2.42;;;18.90;93.30;;;;;;5006537;28;20633;-59
2022/05/21 08:26:56;;;;;;;10.15;3.13;;;18.70;93.40;;;;;;5028333;28;20053;-60
2022/05/21 08:29:34;;;;;;;10.25;3.08;;;18.70;93.90;;;;;;5020368;28;20036;-59
2022/05/21 08:32:01;;;;;;;7.85;2.40;;;18.50;93.00;;;;;;5028172;28;20029;-59
2022/05/21 08:34:28;;;;;;;12.35;2.75;;;18.60;93.20;;;;;;5026672;28;20052;-59
2022/05/21 08:36:54;;;;;;;13.02;2.80;;;18.70;94.60;;;;;;5023512;28;20030;-59
2022/05/21 08:39:21;;;;;;;12.45;2.65;;;18.20;94.10;;;;;;5026338;28;20081;-59
2022/05/21 08:41:59;;;;;;;13.85;3.45;;;18.20;94.40;;;;;;5019410;28;20037;-59
2022/05/21 08:44:42;;;;;;;11.57;2.90;;;18.10;94.90;;;;;;5023668;28;20141;-60
2022/05/21 08:47:45;;;;;;;11.18;2.45;;;18.20;95.20;;;;;;5028598;28;20060;-60
2022/05/21 08:50:14;;;;;;;9.00;2.13;;;18.50;95.10;;;;;;4945268;28;20034;-59
2022/05/21 08:52:44;;;;;;;10.88;3.05;;;19.30;94.70;;;;;;5010564;28;20045;-58
2022/05/21 08:55:17;;;;;;;10.80;2.60;;;19.60;92.20;;;;;;5027119;28;20162;-58
2022/05/21 08:57:53;;;;;;;7.55;2.00;;;20.20;92.30;;;;;;5025142;28;20037;-59
2022/05/21 09:00:25;;;;;;;14.82;2.63;;;20.40;90.10;;;;;;5010328;28;20029;-60
2022/05/21 09:02:52;;;;;;;10.65;2.78;;;20.40;90.70;;;;;;5031298;28;20026;-60
2022/05/21 09:05:21;;;;;;;8.52;2.20;;;20.60;88.70;;;;;;5015999;28;20442;-59
2022/05/21 09:07:57;;;;;;;10.45;3.28;;;19.60;90.10;;;;;;5027235;28;20025;-60
2022/05/21 09:10:53;;;;;;;9.98;2.53;;;19.30;91.80;;;;;;5024308;28;20021;-58
2022/05/21 09:13:41;;;;;;;9.63;2.60;;;18.90;90.80;;;;;;5028370;28;20091;-60
2022/05/21 09:18:56;;;;;;;7.32;2.25;;;18.90;92.60;;;;;;5025284;28;20031;-60
2022/05/21 09:21:25;;;;;;;9.32;2.22;;;18.80;92.10;;;;;;5029192;28;20029;-58
2022/05/21 09:24:02;;;;;;;7.43;2.75;;;19.00;92.10;;;;;;5016711;28;20487;-59
2022/05/21 09:26:49;;;;;;;10.75;2.38;;;19.00;92.10;;;;;;5027766;28;20029;-60
2022/05/21 09:29:31;;;;;;;6.57;1.83;;;19.20;91.60;;;;;;5016122;28;20022;-59
2022/05/21 09:31:57;;;;;;;10.38;3.17;;;19.80;91.90;;;;;;5021809;28;20495;-60
2022/05/21 09:34:29;;;;;;;6.68;3.08;;;20.00;90.00;;;;;;5031911;28;20116;-58
2022/05/21 09:36:55;;;;;;;9.95;2.28;;;20.00;89.30;;;;;;5032198;28;20108;-58
2022/05/21 09:39:39;;;;;;;9.05;2.15;;;20.20;89.60;;;;;;5006404;28;20144;-57
2022/05/21 09:45:24;;;;;;;8.70;2.25;;;20.60;85.90;;;;;;5034203;28;20506;-60
2022/05/21 09:48:13;;;;;;;7.72;2.35;;;20.60;84.50;;;;;;5026256;28;20021;-53
2022/05/21 09:50:54;;;;;;;12.02;2.80;;;20.20;85.60;;;;;;5023056;28;20029;-58
2022/05/21 09:53:25;;;;;;;9.50;1.75;;;20.10;86.80;;;;;;5034823;28;20116;-58
2022/05/21 09:55:59;;;;;;;7.88;1.90;;;19.90;86.50;;;;;;5029740;28;20036;-59
2022/05/21 09:58:25;;;;;;;3.88;1.38;;;19.70;88.20;;;;;;5016914;28;20037;-60
2022/05/21 10:00:57;;;;;;;4.47;1.58;;;20.50;86.60;;;;;;5024409;28;20164;-60
2022/05/21 10:03:50;;;;;;;7.68;1.98;;;20.40;85.60;;;;;;5047170;28;20064;-59
2022/05/21 10:06:29;;;;;;;7.53;1.67;;;20.70;85.90;;;;;;5027906;28;20059;-59
2022/05/21 10:11:55;;;;;;;5.97;1.80;;;21.70;81.60;;;;;;5028886;28;20091;-59
2022/05/21 10:14:40;;;;;;;5.00;1.80;;;21.80;80.70;;;;;;5028613;28;20034;-60
2022/05/21 10:17:12;;;;;;;8.07;2.17;;;20.90;81.30;;;;;;5033413;28;20399;-57
2022/05/21 10:19:44;;;;;;;11.73;2.08;;;20.50;83.60;;;;;;5041713;28;20037;-56
2022/05/21 10:22:32;;;;;;;8.02;1.77;;;19.90;84.90;;;;;;5005568;28;20534;-60
2022/05/21 10:25:13;;;;;;;13.30;3.08;;;19.90;86.40;;;;;;5022627;28;20033;-59
2022/05/21 10:27:57;;;;;;;3.97;1.65;;;19.70;84.50;;;;;;5028022;28;20034;-60
2022/05/21 10:30:48;;;;;;;8.48;1.88;;;19.80;83.10;;;;;;5026541;28;20029;-59
2022/05/21 10:33:32;;;;;;;4.35;2.03;;;19.80;85.00;;;;;;5037183;28;20037;-59
2022/05/21 10:35:58;;;;;;;13.05;2.42;;;19.40;85.80;;;;;;5024964;28;20104;-60
2022/05/21 10:39:10;;;;;;;9.40;1.77;;;19.80;88.30;;;;;;5032546;28;20153;-58
2022/05/21 10:42:02;;;;;;;6.60;1.73;;;20.30;84.30;;;;;;4989576;28;20038;-59
2022/05/21 10:44:58;;;;;;;6.72;1.63;;;20.20;84.20;;;;;;5023305;28;20029;-59
2022/05/21 10:47:33;;;;;;;4.13;1.65;;;20.50;84.20;;;;;;5025736;28;20060;-59
2022/05/21 10:50:10;;;;;;;5.03;1.65;;;20.70;83.10;;;;;;5027291;28;20029;-59
2022/05/21 10:52:45;;;;;;;9.70;2.17;;;20.90;81.00;;;;;;5025131;28;20059;-60
2022/05/21 10:55:36;;;;;;;9.60;2.38;;;21.10;79.20;;;;;;5026315;28;20431;-60
2022/05/21 10:58:22;;;;;;;8.05;2.10;;;21.30;75.50;;;;;;5028697;28;20030;-60
2022/05/21 11:00:48;;;;;;;5.00;1.73;;;21.20;74.80;;;;;;5029306;28;20028;-60
2022/05/21 11:03:54;;;;;;;6.93;1.35;;;21.50;74.30;;;;;;5038029;28;20032;-59
2022/05/21 11:06:50;;;;;;;5.75;1.85;;;21.60;73.40;;;;;;5022102;28;20384;-59
2022/05/21 11:09:31;;;;;;;7.35;1.60;;;22.30;72.90;;;;;;5028566;28;20434;-59
2022/05/21 11:12:17;;;;;;;7.20;1.70;;;22.60;72.70;;;;;;5029280;28;20503;-59
2022/05/21 11:14:52;;;;;;;6.20;1.67;;;22.20;70.70;;;;;;5022176;28;20029;-56
2022/05/21 11:17:41;;;;;;;5.95;1.63;;;22.00;72.60;;;;;;5029259;28;20125;-60
2022/05/21 11:20:12;;;;;;;7.68;2.03;;;22.00;71.40;;;;;;5024399;28;20084;-59
2022/05/21 11:22:56;;;;;;;3.75;1.70;;;21.70;72.90;;;;;;5007474;28;20038;-60
2022/05/21 11:25:52;;;;;;;7.43;1.98;;;21.70;72.10;;;;;;5024300;28;20505;-59
2022/05/21 11:28:46;;;;;;;7.32;2.22;;;21.90;74.20;;;;;;5011209;28;20128;-59
2022/05/21 11:37:20;;;;;;;8.23;2.03;;;21.80;73.00;;;;;;5021095;28;20032;-59
2022/05/21 11:39:47;;;;;;;7.10;1.48;;;21.10;73.80;;;;;;5023513;28;20030;-58
2022/05/21 11:42:16;;;;;;;6.35;1.90;;;20.40;74.80;;;;;;5021286;28;20029;-59
2022/05/21 11:44:58;;;;;;;8.07;2.03;;;20.30;76.10;;;;;;5021150;28;20483;-59
2022/05/21 11:47:33;;;;;;;7.60;2.10;;;20.60;76.70;;;;;;5023180;28;20049;-59
2022/05/21 11:50:01;;;;;;;7.15;2.35;;;20.70;76.50;;;;;;5022379;28;20489;-58
2022/05/21 11:52:27;;;;;;;7.53;2.25;;;20.90;76.50;;;;;;5020968;28;20030;-58
2022/05/21 11:55:07;;;;;;;9.90;2.45;;;20.70;74.10;;;;;;5016826;28;20390;-59
2022/05/21 11:57:39;;;;;;;7.20;1.90;;;20.80;77.70;;;;;;5015684;28;20584;-59
2022/05/21 12:00:09;;;;;;;6.65;2.38;;;21.00;78.30;;;;;;5013445;28;20034;-59
2022/05/21 12:02:40;;;;;;;11.43;2.17;;;21.20;74.40;;;;;;5015456;28;20041;-59
2022/05/21 12:05:08;;;;;;;5.07;1.92;;;21.10;73.90;;;;;;5014628;28;20149;-59
2022/05/21 12:07:40;;;;;;;5.90;1.85;;;21.60;75.50;;;;;;5016680;28;20036;-58
2022/05/21 12:10:13;;;;;;;10.23;2.78;;;21.60;74.40;;;;;;5020529;28;20045;-59
2022/05/21 12:12:59;;;;;;;8.30;1.88;;;21.70;73.70;;;;;;5011353;28;20403;-58
2022/05/21 12:15:38;;;;;;;4.43;1.55;;;22.00;73.80;;;;;;5016216;28;20033;-59
2022/05/21 12:18:09;;;;;;;12.35;2.40;;;22.00;74.40;;;;;;5017159;28;20399;-59
2022/05/21 12:20:47;;;;;;;10.15;2.20;;;22.20;72.80;;;;;;5015213;28;20033;-58
2022/05/21 12:23:43;;;;;;;6.30;2.10;;;22.20;73.40;;;;;;5002678;28;20045;-58
2022/05/21 12:26:26;;;;;;;8.57;1.90;;;22.40;72.50;;;;;;5024355;28;20029;-59
2022/05/21 12:29:07;;;;;;;5.23;1.70;;;22.40;71.00;;;;;;5026839;28;20029;-58
2022/05/21 12:31:43;;;;;;;8.55;2.13;;;22.60;71.50;;;;;;5026586;28;20034;-57
2022/05/21 12:34:26;;;;;;;7.38;1.80;;;22.70;69.00;;;;;;5026028;28;20553;-59
2022/05/21 12:36:58;;;;;;;9.73;2.20;;;22.40;68.60;;;;;;5025560;28;20124;-58
2022/05/21 12:39:33;;;;;;;10.82;2.13;;;22.20;72.20;;;;;;5025211;28;20053;-59
2022/05/21 12:42:10;;;;;;;9.52;2.05;;;22.00;73.20;;;;;;5022123;28;20458;-58
2022/05/21 12:44:45;;;;;;;8.05;2.40;;;21.60;72.80;;;;;;5022976;28;20026;-58
2022/05/21 12:47:13;;;;;;;6.32;1.80;;;21.60;73.60;;;;;;5022029;28;20110;-59
2022/05/21 12:49:48;;;;;;;8.65;2.10;;;21.80;73.80;;;;;;5015549;28;20021;-59
2022/05/21 12:52:28;;;;;;;6.43;1.90;;;21.60;72.60;;;;;;5015075;28;20309;-59
2022/05/21 12:55:12;;;;;;;8.55;2.10;;;21.20;73.30;;;;;;5024678;28;20108;-58
2022/05/21 12:57:38;;;;;;;7.28;2.10;;;21.30;73.80;;;;;;5023146;28;20029;-56
2022/05/21 13:00:05;;;;;;;7.15;2.10;;;21.30;73.10;;;;;;5028888;28;20037;-58
2022/05/21 13:02:43;;;;;;;7.45;1.77;;;21.20;73.90;;;;;;5031622;28;20430;-58
2022/05/21 13:05:16;;;;;;;5.65;1.73;;;21.20;73.30;;;;;;5009486;28;20029;-59
2022/05/21 13:07:43;;;;;;;11.07;2.05;;;21.20;72.70;;;;;;5028500;28;20083;-58
2022/05/21 13:10:25;;;;;;;8.10;2.38;;;21.50;74.20;;;;;;5028115;28;20100;-58
2022/05/21 13:12:59;;;;;;;7.72;2.00;;;20.80;73.20;;;;;;5027497;28;20041;-59
2022/05/21 13:15:48;;;;;;;8.23;2.00;;;20.90;75.10;;;;;;5024944;28;20136;-58
2022/05/21 13:18:38;;;;;;;6.95;2.50;;;20.80;74.70;;;;;;5025166;28;20026;-58
2022/05/21 13:21:41;;;;;;;5.15;2.22;;;21.00;72.30;;;;;;5022107;28;20048;-57
2022/05/21 13:24:17;;;;;;;9.40;1.85;;;21.10;72.30;;;;;;5011403;28;20532;-58
2022/05/21 13:26:43;;;;;;;5.60;1.80;;;21.30;72.40;;;;;;5029728;28;20079;-58
2022/05/21 13:29:25;;;;;;;10.30;1.70;;;21.20;74.30;;;;;;5030019;28;20434;-57